Current Conditions
Misty
Conditions



Pressure
1014.92 (hPa) - 29.97 (inHG)
Visibility

4.5 (km) - 2.8 (miles)
   Temperature
3  °C
37°F
3  °C
Dewpoint
100  %
 Humidity
   Wind Speed
14  km/h
8  kts
9  mph
4.0  m/s
   Wind Direction
 160°
South South
East
   Airport Data
EHAM
Location Amsterdam Schiphol 25 km (15.54 mi)
Metar :EHAM 260725Z 16008KT 4500 BR FEW004 SCT005 03/03 Q1015 BECMG 7000 NSC
Sun 26th January 08:25 am
   Raw Metar Info
Raw METAR is the most common format in the world for the transmission of observational weather data. It is highly standardized through the International Civil Aviation Organization (ICAO), which allows it to be understood throughout most of the world.
   API Info
Data Provided by
https://www.checkwx.com/weather/EHAM
   © Info
CSS/SVG/PHP scripts were developed by weather34.com for use in the weather34 template © 2015-2020

Guide Info provided by Metar-Wikipedia